Time;durP1;ratioP1;P1;durP2;ratioP2;P2;SDS_P1;SDS_P2;PMS_P1;PMS_P2;Temp;Humidity;BMP_temperature;BMP_pressure;BME280_temperature;BME280_humidity;BME280_pressure;Samples;Min_cycle;Max_cycle;Signal;HPM_P1;HPM_P2
2022/10/28 00:02:23;;;;;;;16.33;8.55;;;;;;;16.48;92.36;101780.03;5032558;28;20147;-51
2022/10/28 00:04:48;;;;;;;19.83;8.40;;;;;;;16.47;92.56;101773.09;5026894;28;20029;-51
2022/10/28 00:07:14;;;;;;;18.55;9.05;;;;;;;16.45;92.68;101780.88;5035133;28;20036;-52
2022/10/28 00:09:39;;;;;;;19.35;8.82;;;;;;;16.41;92.82;101784.25;5029002;28;20036;-52
2022/10/28 00:12:05;;;;;;;21.30;9.18;;;;;;;16.40;92.79;101773.84;5031758;28;20543;-52
2022/10/28 00:14:30;;;;;;;17.08;9.30;;;;;;;16.42;92.75;101775.59;5030821;28;20029;-52
2022/10/28 00:16:56;;;;;;;19.58;8.98;;;;;;;16.42;92.96;101778.19;5029930;28;20176;-48
2022/10/28 00:19:21;;;;;;;18.17;8.65;;;;;;;16.41;92.34;101778.19;5029994;28;20038;-51
2022/10/28 00:21:46;;;;;;;17.38;8.48;;;;;;;16.37;92.49;101772.03;5030048;28;20033;-51
2022/10/28 00:24:12;;;;;;;17.55;8.90;;;;;;;16.36;92.65;101771.16;5028115;28;20075;-52
2022/10/28 00:26:41;;;;;;;18.50;7.97;;;;;;;16.33;92.74;101780.66;5026239;28;20022;-51
2022/10/28 00:29:18;;;;;;;18.60;8.33;;;;;;;16.39;92.83;101777.28;5023126;28;22083;-52
2022/10/28 00:31:44;;;;;;;20.17;8.38;;;;;;;16.33;92.70;101775.44;5029685;28;20112;-53
2022/10/28 00:34:17;;;;;;;17.35;8.35;;;;;;;16.35;92.81;101777.22;5027167;28;20103;-51
2022/10/28 00:36:44;;;;;;;20.63;8.88;;;;;;;16.26;92.72;101776.16;5033463;28;20025;-52
2022/10/28 00:39:18;;;;;;;17.20;8.70;;;;;;;16.30;92.32;101783.16;5028950;28;20037;-53
2022/10/28 00:41:50;;;;;;;16.10;7.88;;;;;;;16.27;92.76;101770.16;5029963;28;20071;-52
2022/10/28 00:44:47;;;;;;;19.20;8.32;;;;;;;16.32;92.67;101769.38;5031042;28;20120;-48
2022/10/28 00:47:35;;;;;;;19.10;7.80;;;;;;;16.26;92.58;101764.09;5033117;28;20477;-53
2022/10/28 00:50:15;;;;;;;17.50;8.38;;;;;;;16.24;92.74;101759.69;5030189;28;20064;-52
2022/10/28 00:52:43;;;;;;;15.07;7.75;;;;;;;16.17;92.90;101757.81;5030194;28;20041;-50
2022/10/28 00:55:09;;;;;;;14.27;8.00;;;;;;;16.15;92.96;101752.63;5030625;28;20033;-52
2022/10/28 00:57:36;;;;;;;18.52;7.78;;;;;;;16.13;93.10;101749.09;5030744;28;20030;-51
2022/10/28 01:00:05;;;;;;;17.90;7.75;;;;;;;16.08;93.12;101742.97;5029159;28;20033;-52
2022/10/28 01:02:35;;;;;;;17.80;8.38;;;;;;;16.11;93.39;101739.53;5031611;28;20040;-51
2022/10/28 01:05:01;;;;;;;13.65;7.43;;;;;;;16.09;92.96;101735.22;5030540;28;20477;-51
2022/10/28 01:07:27;;;;;;;13.45;7.70;;;;;;;16.13;92.90;101745.63;5033155;28;20025;-53
2022/10/28 01:09:52;;;;;;;14.20;7.82;;;;;;;16.09;93.12;101731.75;5030665;28;20478;-49
2022/10/28 01:12:33;;;;;;;17.90;8.20;;;;;;;16.13;93.34;101730.06;5028118;28;20037;-52
2022/10/28 01:15:22;;;;;;;15.77;8.18;;;;;;;16.08;93.27;101722.22;5030563;28;20060;-51
2022/10/28 01:18:26;;;;;;;18.17;8.55;;;;;;;16.14;92.89;101724.03;5030544;28;20021;-52
2022/10/28 01:21:19;;;;;;;16.95;7.80;;;;;;;16.07;93.03;101725.63;5031338;28;20485;-52
2022/10/28 01:24:26;;;;;;;19.92;8.60;;;;;;;16.06;92.97;101724.75;5028381;28;20029;-50
2022/10/28 01:27:28;;;;;;;12.50;7.93;;;;;;;16.08;93.11;101730.88;5031188;28;20094;-52
2022/10/28 01:30:02;;;;;;;14.80;7.95;;;;;;;16.03;93.48;101742.88;5044911;28;20020;-52
2022/10/28 01:32:44;;;;;;;17.98;8.40;;;;;;;15.97;92.91;101728.91;5033054;28;20020;-51
2022/10/28 01:35:32;;;;;;;23.23;8.82;;;;;;;16.00;93.16;101726.34;5024450;28;20500;-52
2022/10/28 01:38:07;;;;;;;17.33;8.10;;;;;;;16.00;93.26;101718.56;5031199;28;20032;-52
2022/10/28 01:41:01;;;;;;;18.67;7.85;;;;;;;15.94;93.73;101721.94;5028051;28;20029;-52
2022/10/28 01:43:40;;;;;;;14.15;7.65;;;;;;;15.94;93.38;101719.34;5029497;28;20466;-51
2022/10/28 01:46:48;;;;;;;16.75;7.22;;;;;;;15.99;93.06;101722.91;5019704;28;20441;-51
2022/10/28 01:49:46;;;;;;;16.10;7.50;;;;;;;15.94;93.34;101719.34;5027066;28;20504;-52
2022/10/28 01:52:15;;;;;;;16.42;7.78;;;;;;;15.84;93.76;101725.19;5028298;28;20477;-52
2022/10/28 01:54:45;;;;;;;19.38;7.45;;;;;;;15.82;93.46;101721.69;5025243;28;20108;-50
2022/10/28 01:57:13;;;;;;;16.63;7.97;;;;;;;15.84;93.69;101722.59;5024180;28;20053;-53
2022/10/28 01:59:39;;;;;;;15.70;8.25;;;;;;;15.86;93.43;101717.44;5031697;28;20383;-50
2022/10/28 02:02:05;;;;;;;16.83;7.78;;;;;;;15.80;93.42;101710.41;5027549;28;20025;-52
2022/10/28 02:04:30;;;;;;;20.92;7.60;;;;;;;15.81;93.73;101713.03;5026416;28;20510;-52
2022/10/28 02:06:58;;;;;;;17.30;7.78;;;;;;;15.85;93.57;101710.50;5028160;28;20033;-52
2022/10/28 02:09:30;;;;;;;13.75;7.78;;;;;;;15.86;93.41;101715.72;5029049;28;20413;-52
2022/10/28 02:12:26;;;;;;;15.55;7.13;;;;;;;15.83;93.30;101715.66;5030782;28;20029;-51
2022/10/28 02:15:13;;;;;;;15.75;7.07;;;;;;;15.81;93.05;101714.75;5026682;28;20525;-52
2022/10/28 02:18:02;;;;;;;17.67;7.75;;;;;;;15.81;93.23;101713.03;5028623;28;20123;-53
2022/10/28 02:20:54;;;;;;;18.52;8.07;;;;;;;15.79;93.24;101713.84;5031815;28;20037;-52
2022/10/28 02:23:35;;;;;;;15.88;7.32;;;;;;;15.75;92.93;101710.31;5035630;28;20041;-51
2022/10/28 02:26:07;;;;;;;15.50;7.50;;;;;;;15.71;92.97;101712.81;5027957;28;20500;-50
2022/10/28 02:28:41;;;;;;;18.27;7.40;;;;;;;15.64;92.69;101709.22;5025788;28;20044;-50
2022/10/28 02:31:22;;;;;;;16.58;6.95;;;;;;;15.65;93.15;101707.50;5027308;28;20573;-51
2022/10/28 02:33:53;;;;;;;17.65;7.95;;;;;;;15.61;92.96;101711.72;5025440;28;20025;-49
2022/10/28 02:36:21;;;;;;;19.55;7.93;;;;;;;15.59;93.28;101712.50;5029442;28;20486;-52
2022/10/28 02:38:49;;;;;;;13.32;7.47;;;;;;;15.59;93.23;101705.59;5034400;28;20029;-52
2022/10/28 02:41:32;;;;;;;19.48;7.15;;;;;;;15.63;93.26;101709.19;5037887;28;20029;-52
2022/10/28 02:44:04;;;;;;;18.77;7.50;;;;;;;15.59;93.49;101705.59;5039601;28;20017;-52
2022/10/28 02:46:32;;;;;;;16.52;7.13;;;;;;;15.57;93.13;101703.00;5035738;28;20033;-52
2022/10/28 02:49:06;;;;;;;20.85;7.88;;;;;;;15.54;93.12;101700.34;5029781;28;20024;-52
2022/10/28 02:51:40;;;;;;;17.98;7.38;;;;;;;15.61;92.96;101705.66;5039018;28;20033;-52
2022/10/28 02:54:09;;;;;;;16.65;6.93;;;;;;;15.54;92.71;101702.94;5035610;28;20071;-50
2022/10/28 02:56:41;;;;;;;15.73;7.10;;;;;;;15.55;92.92;101696.91;5032276;28;20025;-50
2022/10/28 02:59:11;;;;;;;14.52;7.03;;;;;;;15.55;93.09;101704.69;5035978;28;20025;-53
2022/10/28 03:01:37;;;;;;;17.30;6.90;;;;;;;15.52;92.43;101704.59;5041215;28;20436;-52
2022/10/28 03:04:03;;;;;;;11.98;6.60;;;;;;;15.51;92.43;101697.69;5037395;28;20025;-52
2022/10/28 03:06:29;;;;;;;16.63;7.25;;;;;;;15.45;92.70;101689.78;5037741;28;20033;-53
2022/10/28 03:08:54;;;;;;;17.80;6.85;;;;;;;15.46;92.64;101698.44;5037077;28;20553;-53
2022/10/28 03:11:20;;;;;;;19.25;7.10;;;;;;;15.45;92.91;101694.09;5039810;28;20102;-51
2022/10/28 03:13:45;;;;;;;19.33;7.20;;;;;;;15.44;92.66;101692.34;5032234;28;20025;-52
2022/10/28 03:16:10;;;;;;;15.68;6.57;;;;;;;15.43;92.62;101694.06;5036278;28;20086;-52
2022/10/28 03:18:36;;;;;;;18.38;7.20;;;;;;;15.43;92.36;101694.06;5035345;28;20615;-52
2022/10/28 03:21:01;;;;;;;21.33;6.82;;;;;;;15.42;92.50;101694.91;5033665;28;20541;-53
2022/10/28 03:23:27;;;;;;;14.40;6.32;;;;;;;15.41;92.25;101695.75;5030867;28;20063;-51
2022/10/28 03:25:52;;;;;;;12.90;6.45;;;;;;;15.36;92.50;101692.19;5039912;28;20025;-52
2022/10/28 03:28:17;;;;;;;17.73;6.63;;;;;;;15.40;92.51;101681.03;5038187;28;20032;-53
2022/10/28 03:30:43;;;;;;;12.40;6.65;;;;;;;15.38;92.28;101690.50;5036759;28;20493;-52
2022/10/28 03:33:08;;;;;;;16.02;6.80;;;;;;;15.39;92.13;101687.06;5054149;28;20481;-52
2022/10/28 03:35:33;;;;;;;14.13;6.55;;;;;;;15.30;92.50;101692.06;5037201;28;20047;-51
2022/10/28 03:37:59;;;;;;;16.08;6.60;;;;;;;15.33;92.34;101686.91;5032738;28;20112;-50
2022/10/28 03:40:24;;;;;;;15.63;7.53;;;;;;;15.36;92.17;101691.31;5033233;28;20037;-51
2022/10/28 03:42:49;;;;;;;14.52;6.22;;;;;;;15.33;91.82;101686.06;5037860;28;20150;-52
2022/10/28 03:45:15;;;;;;;18.55;6.65;;;;;;;15.31;92.17;101673.06;5036914;28;20034;-51
2022/10/28 03:47:40;;;;;;;18.58;6.55;;;;;;;15.35;92.03;101677.50;5037060;28;20068;-52
2022/10/28 03:50:06;;;;;;;17.60;6.55;;;;;;;15.32;92.18;101685.19;5032790;28;20029;-50
2022/10/28 03:52:31;;;;;;;17.58;6.30;;;;;;;15.33;92.00;101686.91;5039323;28;20025;-51
2022/10/28 03:54:57;;;;;;;18.65;6.53;;;;;;;15.24;92.08;101679.84;5032912;28;20037;-52
2022/10/28 03:57:22;;;;;;;14.77;6.30;;;;;;;15.28;91.95;101680.75;5031363;28;20069;-52
2022/10/28 03:59:47;;;;;;;20.48;6.57;;;;;;;15.27;92.10;101679.00;5035331;28;20037;-52
2022/10/28 04:02:14;;;;;;;18.02;6.57;;;;;;;15.28;92.16;101686.81;5037519;28;20045;-51
2022/10/28 04:04:40;;;;;;;17.33;5.70;;;;;;;15.25;92.28;101683.31;5031314;28;20420;-52
2022/10/28 04:07:05;;;;;;;17.88;6.40;;;;;;;15.22;92.28;101683.22;5037833;28;20029;-52
2022/10/28 04:09:31;;;;;;;13.52;5.93;;;;;;;15.20;92.51;101690.09;5036839;28;20057;-52
2022/10/28 04:11:56;;;;;;;16.85;6.93;;;;;;;15.21;92.34;101690.13;5032089;28;20032;-52
2022/10/28 04:14:21;;;;;;;15.15;6.18;;;;;;;15.16;92.09;101681.38;5031036;28;20029;-51
2022/10/28 04:16:47;;;;;;;21.92;7.05;;;;;;;15.16;92.26;101689.13;5036838;28;20104;-51
2022/10/28 04:19:12;;;;;;;18.17;6.57;;;;;;;15.16;92.24;101683.97;5031821;28;20124;-53
2022/10/28 04:21:38;;;;;;;13.02;6.15;;;;;;;15.14;92.07;101688.25;5036694;28;20025;-52
2022/10/28 04:24:03;;;;;;;13.98;6.00;;;;;;;15.17;92.25;101692.63;5040756;28;20088;-52
2022/10/28 04:26:30;;;;;;;14.00;6.68;;;;;;;15.12;91.93;101692.53;5038904;28;20030;-52
2022/10/28 04:28:56;;;;;;;19.45;6.20;;;;;;;15.10;91.89;101689.00;5036155;28;20042;-52
2022/10/28 04:31:21;;;;;;;15.40;6.10;;;;;;;15.07;91.81;101682.88;5038176;28;20033;-58
2022/10/28 04:33:46;;;;;;;18.08;6.20;;;;;;;15.05;91.97;101680.28;5034594;28;20029;-51
2022/10/28 04:36:12;;;;;;;11.65;5.88;;;;;;;15.05;92.14;101692.34;5041404;28;20039;-52
2022/10/28 04:38:37;;;;;;;19.85;6.45;;;;;;;15.03;92.27;101690.56;5041432;28;20405;-51
2022/10/28 04:41:02;;;;;;;15.95;5.78;;;;;;;15.06;91.95;101691.50;5038586;28;20572;-52
2022/10/28 04:43:28;;;;;;;20.80;5.97;;;;;;;15.01;92.18;101699.16;5034180;28;20035;-51
2022/10/28 04:45:53;;;;;;;16.83;6.15;;;;;;;15.02;92.44;101691.41;5043237;28;20108;-52
2022/10/28 04:48:19;;;;;;;14.35;5.75;;;;;;;15.01;92.51;101688.81;5042201;28;20401;-52
2022/10/28 04:50:44;;;;;;;18.33;6.13;;;;;;;14.98;92.23;101680.94;5044980;28;20037;-50
2022/10/28 04:53:11;;;;;;;15.68;5.47;;;;;;;14.97;92.49;101689.56;5032213;28;20442;-54
2022/10/28 04:55:36;;;;;;;21.95;6.10;;;;;;;14.94;92.47;101689.50;5040797;28;20477;-52
2022/10/28 04:58:02;;;;;;;15.32;5.70;;;;;;;14.93;92.53;101674.81;5042886;28;20020;-51
2022/10/28 05:00:29;;;;;;;16.17;5.30;;;;;;;14.94;92.24;101674.84;5042260;28;20025;-51
2022/10/28 05:02:54;;;;;;;17.88;5.57;;;;;;;14.92;91.98;101684.28;5032865;28;20065;-50
2022/10/28 05:05:20;;;;;;;15.63;5.55;;;;;;;14.89;92.19;101679.03;5038172;28;20123;-50
2022/10/28 05:07:45;;;;;;;12.88;5.50;;;;;;;14.89;92.08;101679.03;5031058;28;20367;-51
2022/10/28 05:10:14;;;;;;;17.30;6.00;;;;;;;14.88;92.22;101671.25;5030277;28;20043;-52
2022/10/28 05:12:43;;;;;;;17.53;6.23;;;;;;;14.92;92.18;101681.69;5031819;28;20045;-51
2022/10/28 05:15:10;;;;;;;15.10;5.65;;;;;;;14.84;92.39;101679.75;5031352;28;20428;-50
2022/10/28 05:17:38;;;;;;;16.35;5.97;;;;;;;14.85;92.20;101682.38;5032719;28;20496;-50
2022/10/28 05:20:04;;;;;;;16.73;5.65;;;;;;;14.83;92.10;101684.06;5039350;28;20417;-52
2022/10/28 05:22:29;;;;;;;11.75;5.15;;;;;;;14.80;92.07;101678.81;5042337;28;20037;-52
2022/10/28 05:24:55;;;;;;;14.23;5.90;;;;;;;14.83;91.82;101681.47;5036215;28;20033;-50
2022/10/28 05:27:20;;;;;;;13.85;5.63;;;;;;;14.83;91.75;101681.47;5037467;28;20037;-51
2022/10/28 05:29:45;;;;;;;13.13;5.18;;;;;;;14.79;92.04;101682.22;5044286;28;20032;-50
2022/10/28 05:32:11;;;;;;;15.52;5.38;;;;;;;14.78;92.29;101667.53;5036663;28;20033;-51
2022/10/28 05:34:36;;;;;;;14.32;5.10;;;;;;;14.82;92.17;101671.09;5032593;28;20032;-52
2022/10/28 05:37:01;;;;;;;17.98;5.60;;;;;;;14.84;92.11;101675.47;5041577;28;20036;-51
2022/10/28 05:39:26;;;;;;;15.32;6.05;;;;;;;14.81;92.12;101675.41;5045432;28;20033;-52
2022/10/28 05:41:52;;;;;;;19.05;5.78;;;;;;;14.81;91.97;101675.41;5041976;28;20070;-53
2022/10/28 05:44:17;;;;;;;17.05;5.75;;;;;;;14.79;92.19;101665.84;5041306;28;20037;-52
2022/10/28 05:46:42;;;;;;;14.27;5.68;;;;;;;14.75;91.78;101668.38;5034322;28;20059;-50
2022/10/28 05:49:08;;;;;;;14.48;6.03;;;;;;;14.68;91.85;101670.75;5035167;28;20409;-52
2022/10/28 05:51:33;;;;;;;11.27;5.10;;;;;;;14.71;91.49;101676.00;5043586;28;20478;-52
2022/10/28 05:53:58;;;;;;;15.02;5.80;;;;;;;14.66;91.99;101682.78;5037664;28;20449;-51
2022/10/28 05:56:24;;;;;;;16.77;5.82;;;;;;;14.68;92.23;101675.91;5040163;28;20405;-51
2022/10/28 05:58:49;;;;;;;17.88;5.43;;;;;;;14.63;92.33;101665.47;5037196;28;20025;-52
2022/10/28 06:01:15;;;;;;;15.80;5.85;;;;;;;14.63;92.21;101669.78;5036903;28;20021;-50
2022/10/28 06:03:40;;;;;;;12.98;5.18;;;;;;;14.66;92.72;101669.84;5042328;28;20033;-51
2022/10/28 06:06:06;;;;;;;18.88;5.28;;;;;;;14.65;92.96;101668.09;5039007;28;20029;-51
2022/10/28 06:08:31;;;;;;;18.25;5.53;;;;;;;14.65;92.96;101671.56;5037943;28;20048;-52
2022/10/28 06:10:57;;;;;;;14.07;5.43;;;;;;;14.64;92.33;101681.88;5038124;28;20466;-52
2022/10/28 06:13:23;;;;;;;14.32;5.05;;;;;;;14.67;92.40;101677.63;5045622;28;20041;-51
2022/10/28 06:15:56;;;;;;;18.10;5.55;;;;;;;14.65;92.67;101668.09;5034307;28;20549;-50
2022/10/28 06:18:22;;;;;;;15.93;5.68;;;;;;;14.68;92.47;101678.50;5038328;28;20086;-51
2022/10/28 06:20:55;;;;;;;17.75;5.45;;;;;;;14.68;92.35;101682.00;5039294;28;20138;-52
2022/10/28 06:23:21;;;;;;;12.88;5.18;;;;;;;14.66;92.42;101685.38;5035426;28;20079;-52
2022/10/28 06:25:46;;;;;;;14.00;5.28;;;;;;;14.60;92.01;101693.00;5037686;28;20108;-52
2022/10/28 06:28:11;;;;;;;18.27;5.82;;;;;;;14.63;92.06;101680.13;5039553;28;20136;-51
2022/10/28 06:30:37;;;;;;;9.30;4.80;;;;;;;14.65;92.11;101688.81;5040179;28;20056;-50
2022/10/28 06:33:02;;;;;;;15.77;5.60;;;;;;;14.66;92.24;101687.97;5036942;28;20127;-51
2022/10/28 06:35:27;;;;;;;15.52;5.65;;;;;;;14.64;92.15;101687.06;5034211;28;20036;-51
2022/10/28 06:37:54;;;;;;;15.05;5.78;;;;;;;14.62;92.73;101684.44;5038370;28;20033;-51
2022/10/28 06:40:20;;;;;;;14.27;5.22;;;;;;;14.68;92.68;101688.88;5035376;28;20047;-49
2022/10/28 06:42:45;;;;;;;13.10;5.60;;;;;;;14.69;92.57;101685.47;5036190;28;20036;-52
2022/10/28 06:45:10;;;;;;;14.40;5.30;;;;;;;14.65;92.69;101687.09;5039186;28;20424;-51
2022/10/28 06:47:36;;;;;;;15.25;5.20;;;;;;;14.66;92.77;101688.84;5037530;28;20033;-52
2022/10/28 06:50:01;;;;;;;15.80;6.00;;;;;;;14.66;93.14;101687.97;5038368;28;20107;-52
2022/10/28 06:52:27;;;;;;;16.90;6.00;;;;;;;14.66;93.05;101680.19;5032008;28;20033;-51
2022/10/28 06:54:52;;;;;;;18.63;5.40;;;;;;;14.70;92.79;101663.91;5037833;28;20056;-51
2022/10/28 06:57:17;;;;;;;12.73;5.50;;;;;;;14.67;93.21;101680.22;5040056;28;20541;-52
2022/10/28 06:59:43;;;;;;;17.48;5.78;;;;;;;14.71;93.29;101684.66;5041152;28;20047;-51
2022/10/28 07:02:10;;;;;;;11.05;4.88;;;;;;;14.71;93.26;101681.19;5028137;28;20037;-51
2022/10/28 07:04:35;;;;;;;14.95;6.03;;;;;;;14.72;93.50;101675.16;5039089;28;20032;-52
2022/10/28 07:07:01;;;;;;;12.00;5.40;;;;;;;14.73;93.27;101689.84;5040147;28;20071;-48
2022/10/28 07:09:26;;;;;;;18.65;5.80;;;;;;;14.75;93.32;101688.19;5035987;28;20140;-52
2022/10/28 07:11:51;;;;;;;15.35;6.03;;;;;;;14.77;93.58;101688.22;5039767;28;20120;-51
2022/10/28 07:14:17;;;;;;;16.98;5.47;;;;;;;14.76;93.57;101684.78;5033838;28;20397;-51
2022/10/28 07:16:42;;;;;;;17.13;5.82;;;;;;;14.80;93.82;101688.28;5028556;28;20039;-52
2022/10/28 07:19:08;;;;;;;13.80;5.47;;;;;;;14.77;93.83;101689.09;5039528;28;20036;-49
2022/10/28 07:21:34;;;;;;;18.52;5.85;;;;;;;14.82;93.72;101684.03;5032692;28;20481;-52
2022/10/28 07:23:59;;;;;;;17.23;5.55;;;;;;;14.83;94.20;101690.97;5036104;28;20033;-51
2022/10/28 07:26:25;;;;;;;17.08;5.97;;;;;;;14.83;94.65;101693.56;5036905;28;20104;-51
2022/10/28 07:28:50;;;;;;;15.63;6.00;;;;;;;14.84;94.93;101696.16;5034722;28;20057;-51
2022/10/28 07:31:16;;;;;;;20.52;6.32;;;;;;;14.88;95.01;101699.72;5033624;28;20914;-51
2022/10/28 07:33:42;;;;;;;17.83;5.75;;;;;;;14.87;95.48;101701.44;5030027;28;20565;-52
2022/10/28 07:36:07;;;;;;;16.75;6.07;;;;;;;14.94;95.46;101707.63;5036566;28;20029;-52
2022/10/28 07:38:33;;;;;;;17.20;5.88;;;;;;;14.93;96.24;101706.75;5028059;28;20030;-52
2022/10/28 07:41:06;;;;;;;19.42;6.30;;;;;;;14.98;96.09;101702.53;5034453;28;20056;-51
2022/10/28 07:43:34;;;;;;;16.58;6.50;;;;;;;15.03;96.21;101700.94;5034905;28;20025;-52
2022/10/28 07:46:00;;;;;;;17.98;6.43;;;;;;;15.07;95.92;101693.25;5037274;28;20112;-52
2022/10/28 07:48:25;;;;;;;17.58;6.20;;;;;;;15.11;96.15;101695.97;5033414;28;20597;-51
2022/10/28 07:50:50;;;;;;;16.45;6.40;;;;;;;15.17;96.25;101695.22;5036791;28;20551;-52
2022/10/28 07:53:16;;;;;;;12.68;5.95;;;;;;;15.19;96.81;101697.00;5040476;28;20440;-49
2022/10/28 07:55:41;;;;;;;16.90;6.60;;;;;;;15.23;97.19;101685.00;5040713;28;20473;-51
2022/10/28 07:58:06;;;;;;;15.98;6.70;;;;;;;15.28;96.49;101684.22;5045876;28;20025;-52
2022/10/28 08:00:31;;;;;;;21.60;6.47;;;;;;;15.30;96.70;101686.88;5039551;28;20033;-51
2022/10/28 08:02:57;;;;;;;16.58;6.47;;;;;;;15.39;96.66;101679.28;5035629;28;20079;-52
2022/10/28 08:05:22;;;;;;;16.00;6.13;;;;;;;15.43;96.63;101681.09;5040019;28;20025;-52
2022/10/28 08:07:47;;;;;;;16.02;6.20;;;;;;;15.47;96.90;101680.34;5043455;28;20485;-51
2022/10/28 08:10:13;;;;;;;20.58;6.53;;;;;;;15.54;96.77;101689.13;5042168;28;20529;-52
2022/10/28 08:12:38;;;;;;;18.77;6.40;;;;;;;15.57;97.13;101686.56;5038570;28;20492;-50
2022/10/28 08:15:04;;;;;;;16.15;6.18;;;;;;;15.67;96.88;101688.56;5041742;28;20037;-50
2022/10/28 08:17:30;;;;;;;16.88;5.85;;;;;;;15.72;96.85;101697.31;5040029;28;20043;-52
2022/10/28 08:19:55;;;;;;;16.75;5.60;;;;;;;15.79;95.97;101693.13;5043381;28;20481;-51
2022/10/28 08:22:20;;;;;;;17.92;5.32;;;;;;;15.85;96.70;101697.53;5042477;28;20112;-49
2022/10/28 08:24:46;;;;;;;17.95;6.32;;;;;;;15.93;97.17;101702.03;5043890;28;20145;-49
2022/10/28 08:27:11;;;;;;;16.15;5.45;;;;;;;15.95;96.03;101712.41;5036931;28;20036;-51
2022/10/28 08:29:36;;;;;;;18.38;6.35;;;;;;;16.00;97.14;101709.06;5032613;28;20187;-52
2022/10/28 08:32:02;;;;;;;14.43;5.47;;;;;;;16.03;96.51;101711.75;5042427;28;20063;-49
2022/10/28 08:34:29;;;;;;;24.52;5.60;;;;;;;16.07;96.20;101712.66;5039224;28;20040;-51
2022/10/28 08:36:55;;;;;;;15.60;6.25;;;;;;;16.09;96.40;101703.22;5037177;28;20414;-51
2022/10/28 08:39:21;;;;;;;20.00;5.70;;;;;;;16.12;96.44;101704.97;5041785;28;20510;-51
2022/10/28 08:41:53;;;;;;;17.77;5.30;;;;;;;16.18;96.23;101705.94;5039602;28;20032;-50
2022/10/28 08:44:45;;;;;;;15.73;5.35;;;;;;;16.23;96.75;101711.25;5038297;28;20086;-49
2022/10/28 08:47:27;;;;;;;16.33;5.15;;;;;;;16.34;96.34;101720.09;5042837;28;20059;-49
2022/10/28 08:50:30;;;;;;;17.52;5.60;;;;;;;16.45;96.25;101704.72;5042975;28;20047;-49
2022/10/28 08:53:17;;;;;;;13.65;5.30;;;;;;;16.63;95.89;101697.25;5032150;28;20043;-51
2022/10/28 08:55:46;;;;;;;15.80;4.82;;;;;;;16.84;94.57;101688.94;5040747;28;20559;-47
2022/10/28 08:58:33;;;;;;;16.55;5.47;;;;;;;17.00;94.63;101703.03;5038386;28;20100;-51
2022/10/28 09:00:59;;;;;;;18.05;5.60;;;;;;;17.13;93.57;101707.56;5041355;28;20099;-49
2022/10/28 09:03:25;;;;;;;17.52;5.65;;;;;;;17.24;92.46;101699.94;5037371;28;20155;-51
2022/10/28 09:06:02;;;;;;;15.00;5.03;;;;;;;17.31;93.02;101702.63;5038234;28;20037;-51
2022/10/28 09:08:32;;;;;;;14.18;5.53;;;;;;;17.40;92.08;101707.06;5041867;28;20501;-49
2022/10/28 09:11:23;;;;;;;16.90;5.30;;;;;;;17.42;91.85;101710.56;5031987;28;20029;-52
2022/10/28 09:13:51;;;;;;;13.77;4.43;;;;;;;17.44;91.27;101706.25;5033403;28;20037;-51
2022/10/28 09:16:30;;;;;;;14.98;4.80;;;;;;;17.46;91.58;101707.16;5030406;28;20029;-51
2022/10/28 09:18:58;;;;;;;15.75;5.75;;;;;;;17.49;91.88;101704.59;5035624;28;20040;-51
2022/10/28 09:21:29;;;;;;;15.15;5.03;;;;;;;17.54;91.58;101710.75;5036681;28;20558;-50
2022/10/28 09:23:57;;;;;;;16.20;4.68;;;;;;;17.63;90.22;101715.16;5037838;28;20029;-51
2022/10/28 09:26:51;;;;;;;18.88;5.18;;;;;;;17.72;90.84;101722.28;5038136;28;20725;-50
2022/10/28 09:29:42;;;;;;;16.10;5.35;;;;;;;17.78;90.87;101717.13;5034206;28;20114;-49
2022/10/28 09:32:35;;;;;;;21.45;5.80;;;;;;;17.86;90.11;101716.34;5040128;28;20504;-51
2022/10/28 09:35:09;;;;;;;16.30;5.22;;;;;;;17.88;89.87;101713.78;5034026;28;20797;-51
2022/10/28 09:37:46;;;;;;;18.58;4.95;;;;;;;17.90;89.43;101717.28;5038226;28;20048;-57
2022/10/28 09:40:18;;;;;;;16.02;5.25;;;;;;;17.91;89.19;101719.91;5040615;28;20108;-47
2022/10/28 09:42:55;;;;;;;15.95;5.00;;;;;;;17.92;89.76;101723.38;5039857;28;20044;-50
2022/10/28 09:45:25;;;;;;;20.95;5.88;;;;;;;17.93;89.57;101719.91;5040176;28;20033;-51
2022/10/28 09:48:11;;;;;;;17.45;4.78;;;;;;;17.96;89.25;101727.75;5035865;28;20083;-52
2022/10/28 09:50:37;;;;;;;15.20;4.93;;;;;;;17.97;89.44;101719.09;5034006;28;20025;-52
2022/10/28 09:53:39;;;;;;;15.60;5.05;;;;;;;18.06;89.37;101713.09;5036098;28;20454;-51
2022/10/28 09:56:06;;;;;;;15.20;4.70;;;;;;;18.09;88.87;101718.34;5040112;28;20583;-51
2022/10/28 09:58:35;;;;;;;16.08;4.47;;;;;;;18.15;88.98;101716.69;5030933;28;20029;-51
2022/10/28 10:01:02;;;;;;;15.63;4.93;;;;;;;18.22;88.93;101721.09;5035938;28;20316;-51
2022/10/28 10:03:27;;;;;;;12.55;5.05;;;;;;;18.27;88.14;101726.34;5032342;28;20030;-49
2022/10/28 10:05:56;;;;;;;15.88;5.07;;;;;;;18.32;87.64;101724.69;5040227;28;20036;-49
2022/10/28 10:08:22;;;;;;;17.27;4.80;;;;;;;18.40;86.79;101727.34;5036795;28;20048;-49
2022/10/28 10:10:54;;;;;;;15.10;4.88;;;;;;;18.43;87.65;101719.56;5033614;28;20399;-49
2022/10/28 10:13:27;;;;;;;16.63;4.40;;;;;;;18.46;86.01;101717.00;5037765;28;20037;-47
2022/10/28 10:15:57;;;;;;;14.50;4.30;;;;;;;18.50;85.97;101710.94;5034290;28;20413;-48
2022/10/28 10:18:31;;;;;;;15.93;4.60;;;;;;;18.53;86.40;101716.19;5034997;28;20072;-46
2022/10/28 10:20:57;;;;;;;18.35;5.05;;;;;;;18.61;86.30;101718.84;5033534;28;20021;-49
2022/10/28 10:23:27;;;;;;;18.73;4.88;;;;;;;18.70;85.85;101714.63;5039017;28;20036;-49
2022/10/28 10:26:14;;;;;;;19.58;4.55;;;;;;;18.75;84.64;101710.34;5038208;28;20026;-46
2022/10/28 10:28:45;;;;;;;14.45;4.28;;;;;;;18.77;84.63;101710.34;5042161;28;20056;-47
2022/10/28 10:31:26;;;;;;;13.57;4.53;;;;;;;18.83;84.93;101715.59;5035222;28;20112;-45
2022/10/28 10:33:54;;;;;;;16.05;4.88;;;;;;;18.87;83.85;101713.88;5038699;28;20033;-49
2022/10/28 10:36:22;;;;;;;15.23;4.20;;;;;;;18.92;83.32;101712.16;5041623;28;20493;-48
2022/10/28 10:38:53;;;;;;;16.50;4.10;;;;;;;18.95;83.43;101704.38;5037178;28;20179;-48
2022/10/28 10:41:35;;;;;;;19.17;4.82;;;;;;;19.00;83.38;101702.69;5035535;28;20036;-48
2022/10/28 10:44:23;;;;;;;19.65;4.93;;;;;;;19.01;82.74;101705.31;5031038;28;20029;-48
2022/10/28 10:46:54;;;;;;;13.55;4.10;;;;;;;19.07;82.43;101695.78;5032295;28;20032;-47
2022/10/28 10:49:19;;;;;;;15.85;4.30;;;;;;;19.16;81.65;101696.69;5034613;28;20041;-48
2022/10/28 10:51:51;;;;;;;15.32;4.40;;;;;;;19.17;82.14;101682.81;5040015;28;20082;-49
2022/10/28 10:54:18;;;;;;;15.45;4.28;;;;;;;19.28;81.87;101688.94;5037763;28;20543;-49
2022/10/28 10:56:43;;;;;;;16.90;4.15;;;;;;;19.34;81.64;101692.44;5044195;28;20029;-46
2022/10/28 10:59:22;;;;;;;14.60;4.20;;;;;;;19.36;81.54;101685.53;5042943;28;20037;-47
2022/10/28 11:01:47;;;;;;;15.18;4.50;;;;;;;19.43;80.53;101695.13;5035012;28;20044;-48
2022/10/28 11:04:17;;;;;;;17.60;4.20;;;;;;;19.45;80.79;101703.81;5034499;28;20029;-49
2022/10/28 11:06:47;;;;;;;17.17;4.97;;;;;;;19.51;79.73;101696.00;5030683;28;20025;-50
2022/10/28 11:09:35;;;;;;;14.05;4.20;;;;;;;19.56;80.95;101695.16;5033520;28;20061;-48
2022/10/28 11:12:12;;;;;;;19.53;4.03;;;;;;;19.68;79.29;101686.56;5035260;28;20066;-48
2022/10/28 11:14:37;;;;;;;15.80;4.35;;;;;;;19.74;78.86;101683.09;5039965;28;20101;-54
2022/10/28 11:17:03;;;;;;;17.65;3.75;;;;;;;19.78;76.74;101683.13;5035846;28;20120;-49
2022/10/28 11:19:35;;;;;;;12.00;3.95;;;;;;;19.79;77.30;101679.63;5035909;28;20493;-51
2022/10/28 11:22:16;;;;;;;17.77;4.10;;;;;;;19.79;77.19;101678.78;5034686;28;20080;-46
2022/10/28 11:25:06;;;;;;;13.85;3.90;;;;;;;19.75;77.48;101680.50;5040345;28;20107;-50
2022/10/28 11:28:00;;;;;;;12.70;3.78;;;;;;;19.74;77.21;101675.28;5039611;28;20073;-49
2022/10/28 11:30:44;;;;;;;19.05;4.28;;;;;;;19.70;76.88;101670.91;5042750;28;20040;-48
2022/10/28 11:33:18;;;;;;;16.63;4.10;;;;;;;19.66;77.31;101675.25;5038432;28;20739;-47